Flight Track Log - Related Links

Times and Time Zones

All times are in EDT time to prevent confusion due to time zone crossing. See the UAL561 flight status page for this flight to view local times or setup timezone preferences in your user account.

Time Position Orientation Groundspeed Altitude Reporting Facility
EDT Latitude Longitude Course Direction KTS MPH feet Rate Location/Type
Sun 11:16:23 AM 41.9833 -87.9833 322° Northwest 206 237 2,400  Level Chicago TRACON
Sun 11:17:05 AM 42.0144 -88.0161 322° Northwest 222 255 4,100 1,500 Climbing Chicago Center
Sun 11:18:07 AM 42.0831 -88.0481 341° North 270 311 5,000 912 Climbing Chicago Center
Sun 11:19:10 AM 42.1553 -88.0228 15° North 270 311 6,000 1,824 Climbing Chicago Center
Sun 11:20:12 AM 42.2381 -88.0222 360° North 273 314 8,800 2,565 Climbing Chicago Center
Sun 11:21:14 AM 42.3167 -88.0219 360° North 282 325 11,300 2,177 Climbing Chicago Center
Sun 11:22:16 AM 42.4014 -88.0208 North 303 349 13,300 1,680 Climbing Chicago Center
Sun 11:23:19 AM 42.4944 -88.0508 347° North 343 395 14,800 1,452 Climbing Chicago Center
Sun 11:24:20 AM 42.5947 -88.0892 344° North 371 427 16,300 1,659 Climbing Chicago Center
Sun 11:25:22 AM 42.7025 -88.1264 346° North 394 453 18,200 1,984 Climbing Chicago Center
Sun 11:26:24 AM 42.8200 -88.2144 331° Northwest 401 461 20,400 1,887 Climbing Chicago Center
Sun 11:27:26 AM 42.9133 -88.3031 325° Northwest 406 467 22,100 1,548 Climbing Chicago Center
Sun 11:28:28 AM 43.0111 -88.3922 326° Northwest 418 481 23,600 1,392 Climbing Chicago Center
Sun 11:29:31 AM 43.1106 -88.4856 326° Northwest 428 493 25,000 1,296 Climbing Chicago Center
Sun 11:30:33 AM 43.2125 -88.5797 326° Northwest 437 503 26,300 1,258 Climbing Chicago Center
Sun 11:31:35 AM 43.3169 -88.6786 325° Northwest 445 512 27,600 1,210 Climbing Chicago Center
Sun 11:32:37 AM 43.4244 -88.7806 325° Northwest 457 526 28,800 1,113 Climbing Chicago Center
Sun 11:33:39 AM 43.5322 -88.8811 326° Northwest 460 529 29,900 1,210 Climbing Chicago Center
Sun 11:34:41 AM 43.6597 -89.0017 326° Northwest 462 532 31,300 1,016 Climbing Chicago Center
Sun 11:35:43 AM 43.7636 -89.0989 326° Northwest 455 524 32,000 581 Climbing Chicago Center
Sun 11:36:14 AM 43.8036 -89.1375 325° Northwest 448 516 32,200 484 Climbing Minneapolis Center
Sun 11:36:45 AM 43.8672 -89.1981 326° Northwest 452 520 32,500 516 Climbing Chicago Center
Sun 11:37:47 AM 43.9708 -89.2961 326° Northwest 452 520 33,000 480 Climbing Chicago Center
Sun 11:38:50 AM 44.0728 -89.3953 325° Northwest 452 520 33,500 516 Climbing Chicago Center
Sun 11:39:20 AM 44.1325 -89.4556 324° Northwest 450 518 33,800 323 Climbing Minneapolis Center
Sun 11:40:23 AM 44.2347 -89.5536 326° Northwest 449 517 34,000 96 Climbing Minneapolis Center
Sun 11:41:25 AM 44.3361 -89.6536 325° Northwest 448 516 34,000  Level Minneapolis Center
Sun 11:42:27 AM 44.4378 -89.7531 325° Northwest 447 514 34,000  Level Minneapolis Center
Sun 11:43:29 AM 44.5392 -89.8536 325° Northwest 447 514 34,000  Level Minneapolis Center
Sun 11:44:31 AM 44.6611 -89.9739 325° Northwest 447 514 34,000  Level Minneapolis Center
Sun 11:45:33 AM 44.7611 -90.0725 325° Northwest 446 513 34,000  Level Minneapolis Center
Sun 11:46:35 AM 44.8569 -90.1697 324° Northwest 442 509 34,000  Level Minneapolis Center
Sun 11:47:37 AM 44.9567 -90.2694 325° Northwest 440 506 34,000  Level Minneapolis Center
Sun 11:48:39 AM 45.0744 -90.3883 325° Northwest 436 502 34,000  Level Minneapolis Center
Sun 11:49:41 AM 45.1725 -90.4867 325° Northwest 435 501 34,000  Level Minneapolis Center
Sun 11:50:43 AM 45.2714 -90.5869 324° Northwest 435 501 34,000  Level Minneapolis Center
Sun 11:51:45 AM 45.3697 -90.6889 324° Northwest 435 501 34,000  Level Minneapolis Center
Sun 11:52:48 AM 45.4672 -90.7881 325° Northwest 434 499 34,000  Level Minneapolis Center
Sun 11:53:50 AM 45.5650 -90.8911 324° Northwest 435 501 34,000  Level Minneapolis Center
Sun 11:54:52 AM 45.6650 -90.9942 324° Northwest 435 501 34,000  Level Minneapolis Center
Sun 11:55:54 AM 45.7822 -91.1175 324° Northwest 435 501 34,000  Level Minneapolis Center
Sun 11:56:56 AM 45.8806 -91.2197 324° Northwest 436 502 34,000  Level Minneapolis Center
Sun 11:57:58 AM 45.9814 -91.3239 324° Northwest 438 504 34,000  Level Minneapolis Center
Sun 11:59:00 AM 46.0794 -91.4267 324° Northwest 438 504 34,000  Level Minneapolis Center
Sun 12:00:02 PM 46.1753 -91.5306 323° Northwest 436 502 34,000  Level Minneapolis Center
Sun 12:01:04 PM 46.2814 -91.6450 323° Northwest 433 498 34,000  Level Minneapolis Center
Sun 12:02:06 PM 46.3775 -91.7483 323° Northwest 432 497 34,000  Level Minneapolis Center
Sun 12:03:08 PM 46.4750 -91.8492 325° Northwest 432 497 34,000  Level Minneapolis Center
Sun 12:04:11 PM 46.5675 -91.9533 322° Northwest 428 493 34,000  Level Minneapolis Center
Sun 12:05:13 PM 46.6639 -92.0522 325° Northwest 426 490 34,000  Level Minneapolis Center
Sun 12:06:15 PM 46.7756 -92.1753 323° Northwest 426 490 34,000  Level Minneapolis Center
Sun 12:07:17 PM 46.8486 -92.3047 310° West 418 481 34,000  Level Minneapolis Center
Sun 12:08:19 PM 46.9128 -92.4444 304° West 418 481 34,000  Level Minneapolis Center
Sun 12:09:21 PM 46.9769 -92.5850 304° West 417 480 34,000  Level Minneapolis Center
Sun 12:10:23 PM 47.0403 -92.7269 303° West 417 480 34,000  Level Minneapolis Center
Sun 12:11:25 PM 47.1036 -92.8675 304° West 417 480 34,000  Level Minneapolis Center
Sun 12:12:27 PM 47.1789 -93.0361 303° West 415 478 34,000  Level Minneapolis Center
Sun 12:13:29 PM 47.2433 -93.1794 304° West 414 476 34,000  Level Minneapolis Center
Sun 12:14:31 PM 47.3061 -93.3256 302° West 414 476 34,000  Level Minneapolis Center
Sun 12:15:34 PM 47.3706 -93.4683 304° West 414 476 34,000  Level Minneapolis Center
Sun 12:16:36 PM 47.4336 -93.6108 303° West 414 476 34,000  Level Minneapolis Center
Sun 12:17:38 PM 47.4956 -93.7525 303° West 414 476 34,000  Level Minneapolis Center
Sun 12:18:40 PM 47.5567 -93.8925 303° West 409 471 34,000  Level Minneapolis Center
Sun 12:19:42 PM 47.6181 -94.0356 303° West 409 471 34,000  Level Minneapolis Center
Sun 12:20:44 PM 47.6917 -94.2064 303° West 409 471 34,000  Level Minneapolis Center
Sun 12:21:46 PM 47.7536 -94.3497 303° West 409 471 34,000  Level Minneapolis Center
Sun 12:22:48 PM 47.8153 -94.4950 302° West 411 473 34,000  Level Minneapolis Center
Sun 12:23:50 PM 47.8761 -94.6414 302° West 412 474 34,000  Level Minneapolis Center
Sun 12:24:52 PM 47.9381 -94.7872 302° West 413 475 34,000  Level Minneapolis Center
Sun 12:25:54 PM 47.9997 -94.9356 302° West 417 480 34,000  Level Minneapolis Center
Sun 12:26:57 PM 48.0742 -95.1111 302° West 418 481 34,000  Level Minneapolis Center
Sun 12:27:59 PM 48.1356 -95.2586 302° West 418 481 34,000  Level Minneapolis Center
Sun 12:29:01 PM 48.1956 -95.4053 302° West 418 481 34,000  Level Minneapolis Center
Sun 12:30:03 PM 48.2614 -95.5644 302° West 418 481 34,000  Level Minneapolis Center
Sun 12:31:05 PM 48.3206 -95.7114 301° West 417 480 34,000  Level Minneapolis Center
Sun 12:32:07 PM 48.3794 -95.8581 301° West 417 480 34,000  Level Minneapolis Center
Sun 12:33:09 PM 48.4381 -96.0058 301° West 417 480 34,000 48 Level Minneapolis Center
Sun 12:34:11 PM 48.5086 -96.1831 301° West 416 479 34,100 290 Climbing Minneapolis Center
Sun 12:35:13 PM 48.5678 -96.3311 301° West 416 479 34,600 484 Climbing Minneapolis Center
Sun 12:36:15 PM 48.6267 -96.4783 301° West 416 479 35,100 484 Climbing Minneapolis Center
Sun 12:37:17 PM 48.6856 -96.6264 301° West 415 478 35,600 425 Climbing Minneapolis Center
Sun 12:38:22 PM 48.7422 -96.7700 301° West 408 470 36,000 189 Climbing Minneapolis Center
Sun 12:39:24 PM 48.8106 -96.9450 301° West 406 467 36,000  Level Minneapolis Center
Sun 12:40:26 PM 48.8664 -97.0897 300° West 404 465 36,000  Level Minneapolis Center
Sun 12:41:28 PM 48.9214 -97.2364 300° West 403 464 36,000  Level Minneapolis Center
Sun 12:42:40 PM 48.9833 -97.4167 298° West 400 460 36,000  Level Winnipeg Center
Sun 12:43:40 PM 49.0167 -97.5500 291° West 400 460 36,000  Level Winnipeg Center
Sun 12:44:40 PM 49.0833 -97.7000 304° West 400 460 36,000  Level Winnipeg Center
Sun 12:45:40 PM 49.1333 -97.8667 295° West 400 460 36,000  Level Winnipeg Center
Sun 12:46:40 PM 49.2000 -98.0167 304° West 410 472 36,000  Level Winnipeg Center
Sun 12:47:40 PM 49.2500 -98.1667 297° West 410 472 36,000  Level Winnipeg Center
Sun 12:48:40 PM 49.3000 -98.3000 300° West 410 472 36,000  Level Winnipeg Center
Sun 12:49:40 PM 49.3667 -98.4500 304° West 410 472 36,000  Level Winnipeg Center
Sun 12:52:40 PM 49.5333 -98.9167 300° West 410 472 36,000  Level Winnipeg Center
Sun 12:53:40 PM 49.6000 -99.0833 302° West 410 472 36,000  Level Winnipeg Center
Sun 12:54:40 PM 49.6333 -99.2333 289° West 410 472 36,000  Level Winnipeg Center
Sun 12:55:40 PM 49.7000 -99.4000 302° West 410 472 36,000  Level Winnipeg Center
Sun 12:56:40 PM 49.7500 -99.5500 297° West 410 472 36,000  Level Winnipeg Center
Sun 12:57:40 PM 49.8167 -99.7167 302° West 410 472 36,000  Level Winnipeg Center
Sun 12:58:40 PM 49.8667 -99.8667 297° West 420 483 36,000  Level Winnipeg Center
Sun 12:59:40 PM 49.9167 -100.0000 300° West 420 483 36,000  Level Winnipeg Center
Sun 01:00:40 PM 49.9667 -100.2000 291° West 420 483 36,000  Level Winnipeg Center
Sun 01:01:40 PM 50.0333 -100.3500 305° West 420 483 36,000  Level Winnipeg Center
Sun 01:02:40 PM 50.0833 -100.5167 295° West 420 483 36,000  Level Winnipeg Center
Sun 01:03:40 PM 50.1333 -100.6667 298° West 420 483 36,000  Level Winnipeg Center
Sun 01:04:40 PM 50.1833 -100.8333 295° West 420 483 36,000  Level Winnipeg Center
Sun 01:05:40 PM 50.2500 -101.0000 302° West 430 495 36,000  Level Winnipeg Center
Sun 01:06:40 PM 50.2833 -101.1500 289° West 430 495 36,000  Level Winnipeg Center
Sun 01:07:40 PM 50.3500 -101.3500 298° West 430 495 36,000  Level Winnipeg Center
Sun 01:08:40 PM 50.4167 -101.5167 302° West 430 495 36,000  Level Winnipeg Center
Sun 01:09:40 PM 50.4667 -101.6667 298° West 430 495 36,000  Level Winnipeg Center
Sun 01:10:40 PM 50.5167 -101.8333 295° West 430 495 36,000  Level Winnipeg Center
Sun 01:11:40 PM 50.5667 -102.0333 292° West 430 495 36,000  Level Winnipeg Center
Sun 01:12:40 PM 50.6167 -102.1833 298° West 430 495 36,000  Level Winnipeg Center
Sun 01:13:40 PM 50.6667 -102.3500 295° West 430 495 36,000  Level Winnipeg Center
Sun 01:14:40 PM 50.7167 -102.5167 295° West 430 495 36,000  Level Winnipeg Center
Sun 01:15:40 PM 50.7833 -102.6833 302° West 430 495 36,000  Level Winnipeg Center
Sun 01:16:40 PM 50.8333 -102.8833 292° West 430 495 36,000  Level Winnipeg Center
Sun 01:17:40 PM 50.8667 -103.0500 288° West 430 495 36,000  Level Winnipeg Center
Sun 01:18:40 PM 50.9333 -103.2167 302° West 430 495 36,000  Level Winnipeg Center
Sun 01:19:40 PM 50.9667 -103.3833 288° West 430 495 36,000  Level Winnipeg Center
Sun 01:20:40 PM 51.0333 -103.5500 303° West 430 495 36,000  Level Winnipeg Center
Sun 01:21:40 PM 51.0833 -103.7333 294° West 430 495 36,000  Level Winnipeg Center
Sun 01:22:40 PM 51.1333 -103.9000 296° West 430 495 36,000  Level Winnipeg Center
Sun 01:23:40 PM 51.1833 -104.0833 294° West 430 495 36,000  Level Winnipeg Center
Sun 01:24:40 PM 51.2333 -104.2500 296° West 430 495 36,000  Level Winnipeg Center
Sun 01:25:40 PM 51.2833 -104.4333 294° West 430 495 36,000  Level Winnipeg Center
Sun 01:26:40 PM 51.3333 -104.6167 294° West 430 495 36,000  Level Winnipeg Center
Sun 01:27:40 PM 51.3833 -104.7833 296° West 420 483 36,000  Level Winnipeg Center
Sun 01:28:40 PM 51.4333 -104.9500 296° West 420 483 36,000  Level Winnipeg Center
Sun 01:29:40 PM 51.4667 -105.1167 288° West 420 483 36,000  Level Winnipeg Center
Sun 01:30:40 PM 51.5000 -105.2833 288° West 410 472 36,000  Level Winnipeg Center
Sun 01:31:40 PM 51.5667 -105.4667 300° West 410 472 36,000  Level Winnipeg Center
Sun 01:32:40 PM 51.6000 -105.6333 288° West 420 483 36,000  Level Winnipeg Center
Sun 01:33:40 PM 51.6500 -105.8000 296° West 420 483 36,000  Level Winnipeg Center
Sun 01:34:40 PM 51.7167 -105.9833 300° West 420 483 36,000  Level Winnipeg Center
Sun 01:35:40 PM 51.7500 -106.1500 288° West 420 483 36,000  Level Winnipeg Center
Sun 01:36:40 PM 51.8000 -106.3167 296° West 420 483 36,000  Level Winnipeg Center
Sun 01:37:40 PM 51.8333 -106.5000 286° West 430 495 36,000  Level Winnipeg Center
Sun 01:38:40 PM 51.8833 -106.6667 296° West 430 495 36,000  Level Winnipeg Center
Sun 01:39:40 PM 51.9167 -106.8667 285° West 430 495 36,000  Level Winnipeg Center
Sun 01:40:40 PM 51.9833 -107.0500 301° West 420 483 36,000  Level Winnipeg Center
Sun 01:41:40 PM 52.0333 -107.2167 296° West 420 483 36,000  Level Winnipeg Center
Sun 01:42:40 PM 52.0667 -107.3833 288° West 420 483 36,000  Level Winnipeg Center
Sun 01:43:40 PM 52.1000 -107.5333 290° West 420 483 36,000  Level Winnipeg Center
Sun 01:44:40 PM 52.1500 -107.7500 291° West 410 472 36,000  Level Winnipeg Center
Sun 01:45:40 PM 52.1833 -107.8833 292° West 410 472 36,000  Level Winnipeg Center
Sun 01:46:40 PM 52.2333 -108.1000 291° West 410 472 36,000  Level Winnipeg Center
Sun 01:47:40 PM 52.2667 -108.2333 292° West 410 472 36,000  Level Winnipeg Center
Sun 01:48:40 PM 52.3167 -108.4500 291° West 420 483 36,000  Level Winnipeg Center
Sun 01:49:40 PM 52.3500 -108.6000 290° West 420 483 36,000  Level Winnipeg Center
Sun 01:50:40 PM 52.4000 -108.7667 296° West 420 483 36,000  Level Winnipeg Center
Sun 01:51:40 PM 52.4500 -108.9833 291° West 430 495 36,000  Level Winnipeg Center
Sun 01:52:40 PM 52.4833 -109.1500 288° West 430 495 36,000  Level Winnipeg Center
Sun 01:53:40 PM 52.5333 -109.3333 294° West 430 495 36,000  Level Winnipeg Center
Sun 01:54:40 PM 52.5667 -109.5167 287° West 440 506 36,000  Level Winnipeg Center
Sun 01:55:40 PM 52.6167 -109.7167 292° West 430 495 36,000  Level Winnipeg Center
Sun 01:56:40 PM 52.6500 -109.9000 287° West 440 506 36,000  Level Winnipeg Center
Sun 01:57:40 PM 52.7000 -110.0833 294° West 440 506 36,000  Level Winnipeg Center
Sun 01:58:40 PM 52.7500 -110.2667 294° West 440 506 36,000  Level Winnipeg Center
Sun 01:59:40 PM 52.8167 -110.4333 304° West 440 506 36,000  Level Winnipeg Center
Sun 02:00:40 PM 52.8833 -110.6167 301° West 440 506 36,000  Level Winnipeg Center
Sun 02:01:40 PM 52.9333 -110.8000 294° West 440 506 36,000  Level Winnipeg Center
Sun 02:02:40 PM 53.0167 -110.9667 310° West 450 518 36,000  Level Winnipeg Center
Sun 02:03:40 PM 53.0667 -111.1333 297° West 450 518 36,000  Level Winnipeg Center
Sun 02:04:40 PM 53.1500 -111.3000 310° West 450 518 36,000  Level Winnipeg Center
Sun 02:05:40 PM 53.2167 -111.4667 304° West 450 518 36,000  Level Winnipeg Center
Sun 02:06:40 PM 53.2833 -111.6333 304° West 450 518 36,000  Level Winnipeg Center
Sun 02:07:40 PM 53.3667 -111.8000 310° West 450 518 36,000  Level Winnipeg Center
Sun 02:08:40 PM 53.4333 -111.9667 304° West 450 518 36,000  Level Winnipeg Center
Sun 02:09:40 PM 53.5000 -112.1667 299° West 450 518 36,000  Level Winnipeg Center
Sun 02:10:40 PM 53.5667 -112.3333 304° West 450 518 36,000  Level Winnipeg Center
Sun 02:11:40 PM 53.6500 -112.5000 310° West 450 518 36,000  Level Winnipeg Center
Sun 02:12:40 PM 53.7167 -112.6667 304° West 450 518 36,000  Level Winnipeg Center
Sun 02:13:40 PM 53.8000 -112.8500 308° West 450 518 36,000  Level Winnipeg Center
Sun 02:14:40 PM 53.8500 -113.0167 297° West 440 506 36,000  Level Winnipeg Center
Sun 02:16:01 PM 53.9333 -113.2000 308° West 440 506 36,000  Level Edmonton Center
Sun 02:17:01 PM 54.0167 -113.3667 310° West 440 506 36,000  Level Edmonton Center
Sun 02:18:01 PM 54.0833 -113.5500 302° West 440 506 36,000  Level Edmonton Center
Sun 02:19:01 PM 54.1333 -113.7000 300° West 430 495 36,000  Level Edmonton Center
Sun 02:20:01 PM 54.2167 -113.9000 306° West 440 506 36,000  Level Edmonton Center
Sun 02:21:01 PM 54.2833 -114.0667 304° West 440 506 36,000  Level Edmonton Center
Sun 02:22:01 PM 54.3500 -114.2500 302° West 440 506 36,000  Level Edmonton Center
Sun 02:23:01 PM 54.4167 -114.4167 305° West 440 506 36,000  Level Edmonton Center
Sun 02:24:01 PM 54.4833 -114.6000 302° West 440 506 36,000  Level Edmonton Center
Sun 02:25:01 PM 54.5500 -114.8000 300° West 440 506 36,000  Level Edmonton Center
Sun 02:26:01 PM 54.6167 -114.9667 305° West 440 506 36,000  Level Edmonton Center
Sun 02:27:01 PM 54.6833 -115.1500 302° West 440 506 36,000  Level Edmonton Center
Sun 02:28:01 PM 54.7333 -115.3167 298° West 440 506 36,000  Level Edmonton Center
Sun 02:29:01 PM 54.8167 -115.4833 311° West 440 506 36,000  Level Edmonton Center
Sun 02:30:01 PM 54.8833 -115.6833 300° West 440 506 36,000  Level Edmonton Center
Sun 02:31:01 PM 54.9500 -115.8833 300° West 440 506 36,000  Level Edmonton Center
Sun 02:32:01 PM 55.0167 -116.0500 305° West 440 506 36,000  Level Edmonton Center
Sun 02:33:01 PM 55.0833 -116.2500 300° West 440 506 36,000  Level Edmonton Center
Sun 02:34:01 PM 55.1333 -116.4167 298° West 440 506 36,000  Level Edmonton Center
Sun 02:35:01 PM 55.2000 -116.6167 300° West 440 506 36,000  Level Edmonton Center
Sun 02:36:01 PM 55.2667 -116.7833 305° West 440 506 36,000  Level Edmonton Center
Sun 02:37:01 PM 55.3333 -116.9833 300° West 440 506 36,000  Level Edmonton Center
Sun 02:38:01 PM 55.4000 -117.1667 303° West 440 506 36,000  Level Edmonton Center
Sun 02:39:01 PM 55.4500 -117.3500 296° West 450 518 36,000  Level Edmonton Center
Sun 02:40:01 PM 55.5333 -117.5667 304° West 440 506 36,000  Level Edmonton Center
Sun 02:41:01 PM 55.5833 -117.7333 298° West 440 506 36,000  Level Edmonton Center
Sun 02:42:01 PM 55.6500 -117.9333 301° West 440 506 36,000  Level Edmonton Center
Sun 02:43:01 PM 55.7167 -118.1167 303° West 440 506 36,000  Level Edmonton Center
Sun 02:44:01 PM 55.7833 -118.3167 301° West 440 506 36,000  Level Edmonton Center
Sun 02:45:01 PM 55.8500 -118.5000 303° West 440 506 36,000  Level Edmonton Center
Sun 02:46:01 PM 55.9000 -118.7000 294° West 440 506 36,000  Level Edmonton Center
Sun 02:47:01 PM 55.9500 -118.8833 296° West 440 506 36,000  Level Edmonton Center
Sun 02:48:01 PM 56.0167 -119.0833 301° West 440 506 36,000  Level Edmonton Center
Sun 02:49:01 PM 56.0833 -119.2667 303° West 440 506 36,000  Level Edmonton Center
Sun 02:50:01 PM 56.1333 -119.4333 298° West 430 495 36,000  Level Edmonton Center
Sun 02:51:01 PM 56.1833 -119.6500 293° West 440 506 36,000  Level Edmonton Center
Sun 02:52:01 PM 56.2500 -119.8333 303° West 440 506 36,000  Level Edmonton Center
Sun 02:53:01 PM 56.3167 -120.0333 301° West 430 495 36,000 100 Level Edmonton Center
Sun 02:54:01 PM 56.3833 -120.2167 303° West 440 506 36,200 750 Climbing Edmonton Center
Sun 02:55:01 PM 56.4333 -120.4333 293° West 430 495 37,500 900 Climbing Edmonton Center
Sun 02:56:01 PM 56.4833 -120.6167 296° West 430 495 38,000 250 Climbing Edmonton Center
Sun 02:57:01 PM 56.5333 -120.8167 294° West 430 495 38,000  Level Edmonton Center
Sun 02:58:01 PM 56.6000 -121.0167 301° West 430 495 38,000  Level Edmonton Center
Sun 02:59:01 PM 56.6667 -121.2000 304° West 430 495 38,000  Level Edmonton Center
Sun 03:00:01 PM 56.7000 -121.4000 287° West 430 495 38,000  Level Edmonton Center
Sun 03:01:01 PM 56.7667 -121.5833 304° West 430 495 38,000  Level Edmonton Center
Sun 03:02:01 PM 56.8333 -121.7833 301° West 420 483 38,000  Level Edmonton Center
Sun 03:03:01 PM 56.8833 -122.0000 293° West 430 495 38,000  Level Edmonton Center
Sun 03:04:01 PM 56.9333 -122.1667 299° West 430 495 38,000  Level Edmonton Center
Sun 03:05:01 PM 56.9833 -122.3667 295° West 430 495 38,000  Level Edmonton Center
Sun 03:06:01 PM 57.0500 -122.5833 300° West 430 495 38,000  Level Edmonton Center
Sun 03:07:01 PM 57.0833 -122.7667 289° West 440 506 38,000  Level Edmonton Center
Sun 03:08:01 PM 57.1333 -122.9833 293° West 440 506 38,000  Level Edmonton Center
Sun 03:09:01 PM 57.2000 -123.1833 302° West 440 506 38,000  Level Edmonton Center
Sun 03:10:01 PM 57.2500 -123.4000 293° West 440 506 38,000  Level Edmonton Center
Sun 03:12:00 PM 57.3574 -123.7825 298° West  Level FlightAware Approximate
Sun 03:19:00 PM 57.7272 -125.1506 297° West  Level FlightAware Approximate
Sun 03:20:00 PM 57.7788 -125.3483 296° West  Level FlightAware Approximate
Sun 03:21:00 PM 57.8301 -125.5465 296° West  Level FlightAware Approximate
Sun 03:22:00 PM 57.8811 -125.7454 296° West  Level FlightAware Approximate
Sun 03:23:00 PM 57.9317 -125.9447 296° West  Level FlightAware Approximate
Sun 03:24:00 PM 57.9821 -126.1447 295° West  Level FlightAware Approximate
Sun 03:25:00 PM 58.0321 -126.3452 295° West  Level FlightAware Approximate
Sun 03:26:00 PM 58.0780 -126.5497 293° West  Level FlightAware Approximate
Sun 03:27:00 PM 58.1235 -126.7546 293° West  Level FlightAware Approximate
Sun 03:28:00 PM 58.1686 -126.9600 293° West  Level FlightAware Approximate
Sun 03:29:00 PM 58.2134 -127.1659 293° West  Level FlightAware Approximate
Sun 03:30:00 PM 58.2579 -127.3724 292° West  Level FlightAware Approximate
Sun 03:31:00 PM 58.3020 -127.5794 292° West  Level FlightAware Approximate
Sun 03:32:00 PM 58.3458 -127.7869 292° West  Level FlightAware Approximate
Sun 03:33:00 PM 58.3892 -127.9949 292° West  Level FlightAware Approximate
Sun 03:34:00 PM 58.4321 -128.2036 292° West  Level FlightAware Approximate
Sun 03:35:00 PM 58.4747 -128.4128 291° West  Level FlightAware Approximate
Sun 03:36:00 PM 58.5169 -128.6224 291° West  Level FlightAware Approximate
Sun 03:37:00 PM 58.5588 -128.8326 291° West  Level FlightAware Approximate
Sun 03:38:00 PM 58.6004 -129.0433 291° West  Level FlightAware Approximate
Sun 03:39:00 PM 58.6416 -129.2545 291° West  Level FlightAware Approximate
Sun 03:40:00 PM 58.6825 -129.4662 290° West  Level FlightAware Approximate
Sun 03:41:00 PM 58.7230 -129.6783 290° West  Level FlightAware Approximate
Sun 03:42:00 PM 58.7632 -129.8910 290° West  Level FlightAware Approximate
Sun 03:43:00 PM 58.8030 -130.1042 290° West  Level FlightAware Approximate
Sun 03:44:00 PM 58.8425 -130.3178 290° West  Level FlightAware Approximate
Sun 03:45:00 PM 58.8815 -130.5319 289° West  Level FlightAware Approximate
Sun 03:46:00 PM 58.9202 -130.7466 289° West  Level FlightAware Approximate
Sun 03:47:00 PM 58.9585 -130.9617 289° West  Level FlightAware Approximate
Sun 03:48:00 PM 58.9965 -131.1774 289° West  Level FlightAware Approximate
Sun 03:49:00 PM 59.0340 -131.3929 289° West  Level FlightAware Approximate
Sun 03:50:00 PM 59.0712 -131.6089 289° West  Level FlightAware Approximate
Sun 03:51:00 PM 59.1080 -131.8254 288° West  Level FlightAware Approximate
Sun 03:52:00 PM 59.1444 -132.0424 288° West  Level FlightAware Approximate
Sun 03:53:00 PM 59.1805 -132.2598 288° West  Level FlightAware Approximate
Sun 03:54:00 PM 59.2162 -132.4776 288° West  Level FlightAware Approximate
Sun 03:55:00 PM 59.2515 -132.6960 288° West  Level FlightAware Approximate
Sun 03:56:00 PM 59.2865 -132.9147 287° West  Level FlightAware Approximate
Sun 03:57:00 PM 59.3215 -133.1339 288° West  Level FlightAware Approximate
Sun 03:58:00 PM 59.3563 -133.3532 287° West  Level FlightAware Approximate
Sun 03:59:00 PM 59.3908 -133.5730 287° West  Level FlightAware Approximate
Sun 04:00:00 PM 59.4249 -133.7932 287° West  Level FlightAware Approximate
Sun 04:01:00 PM 59.4586 -134.0138 287° West  Level FlightAware Approximate
Sun 04:02:00 PM 59.4920 -134.2349 287° West  Level FlightAware Approximate
Sun 04:03:00 PM 59.5249 -134.4564 286° West  Level FlightAware Approximate
Sun 04:04:00 PM 59.5576 -134.6783 286° West  Level FlightAware Approximate
Sun 04:05:00 PM 59.5898 -134.9007 286° West  Level FlightAware Approximate
Sun 04:06:00 PM 59.6216 -135.1235 286° West  Level FlightAware Approximate
Sun 04:07:00 PM 59.6531 -135.3467 286° West  Level FlightAware Approximate
Sun 04:08:00 PM 59.6842 -135.5703 285° West  Level FlightAware Approximate
Sun 04:09:00 PM 59.7149 -135.7944 285° West  Level FlightAware Approximate
Sun 04:10:00 PM 59.7452 -136.0188 285° West  Level FlightAware Approximate
Sun 04:11:00 PM 59.7752 -136.2437 285° West  Level FlightAware Approximate
Sun 04:12:00 PM 59.8047 -136.4689 285° West  Level FlightAware Approximate
Sun 04:13:00 PM 59.8339 -136.6946 285° West  Level FlightAware Approximate
Sun 04:14:00 PM 59.8627 -136.9206 284° West  Level FlightAware Approximate
Sun 04:15:00 PM 59.8911 -137.1471 284° West  Level FlightAware Approximate
Sun 04:16:00 PM 59.9191 -137.3739 284° West  Level FlightAware Approximate
Sun 04:17:00 PM 59.9468 -137.6011 284° West  Level FlightAware Approximate
Sun 04:18:00 PM 59.9740 -137.8287 284° West  Level FlightAware Approximate
Sun 04:19:00 PM 60.0008 -138.0566 283° West  Level FlightAware Approximate
Sun 04:20:00 PM 60.0273 -138.2849 283° West  Level FlightAware Approximate
Sun 04:21:00 PM 60.0533 -138.5136 283° West  Level FlightAware Approximate
Sun 04:22:00 PM 60.0790 -138.7427 283° West  Level FlightAware Approximate
Sun 04:23:00 PM 60.1000 -138.9730 270° West  Level FlightAware Approximate
Sun 04:24:00 PM 60.1208 -139.2038 283° West  Level FlightAware Approximate
Sun 04:25:00 PM 60.1460 -139.4335 283° West  Level FlightAware Approximate
Sun 04:26:00 PM 60.1707 -139.6636 282° West  Level FlightAware Approximate
Sun 04:26:35 PM 60.1667 -139.6833 281° West 430 495 38,000  Level Anchorage Center
Sun 04:27:00 PM 60.1951 -139.8940 282° West  Level FlightAware Approximate
Sun 04:27:35 PM 60.2000 -139.9167 286° West 440 506 38,000  Level Anchorage Center
Sun 04:28:00 PM 60.2191 -140.1247 282° West  Level FlightAware Approximate
Sun 04:28:36 PM 60.2167 -140.1667 278° West 450 518 38,000  Level Anchorage Center
Sun 04:29:00 PM 60.2427 -140.3558 282° West  Level FlightAware Approximate
Sun 04:29:36 PM 60.2500 -140.4167 285° West 450 518 38,000  Level Anchorage Center
Sun 04:30:00 PM 60.2659 -140.5872 282° West  Level FlightAware Approximate
Sun 04:30:36 PM 60.2667 -140.6667 278° West 440 506 38,000  Level Anchorage Center
Sun 04:31:00 PM 60.2886 -140.8190 281° West  Level FlightAware Approximate
Sun 04:31:37 PM 60.3000 -140.9167 285° West 450 518 38,000  Level Anchorage Center
Sun 04:32:37 PM 60.3167 -141.1667 278° West 450 518 38,000  Level Anchorage Center
Sun 04:33:38 PM 60.3333 -141.4167 278° West 450 518 38,000  Level Anchorage Center
Sun 04:34:38 PM 60.3667 -141.6667 285° West 450 518 38,000  Level Anchorage Center
Sun 04:35:38 PM 60.3833 -141.9167 278° West 450 518 38,000  Level Anchorage Center
Sun 04:36:39 PM 60.4000 -142.1667 278° West 440 506 38,000  Level Anchorage Center
Sun 04:37:39 PM 60.4167 -142.4167 278° West 450 518 38,000  Level Anchorage Center
Sun 04:38:39 PM 60.4333 -142.6667 278° West 450 518 38,000  Level Anchorage Center
Sun 04:39:40 PM 60.4667 -142.9167 285° West 460 529 38,000  Level Anchorage Center
Sun 04:40:40 PM 60.4833 -143.1667 278° West 450 518 38,000  Level Anchorage Center
Sun 04:41:40 PM 60.5000 -143.4167 278° West 450 518 38,000  Level Anchorage Center
Sun 04:42:41 PM 60.5167 -143.6833 277° West 460 529 38,000  Level Anchorage Center
Sun 04:43:41 PM 60.5333 -143.9333 278° West 450 518 38,000  Level Anchorage Center
Sun 04:44:41 PM 60.5500 -144.2000 277° West 460 529 38,000  Level Anchorage Center
Sun 04:45:42 PM 60.5667 -144.4667 277° West 470 541 38,000  Level Anchorage Center
Sun 04:46:42 PM 60.5833 -144.7167 278° West 460 529 38,000  Level Anchorage Center
Sun 04:47:42 PM 60.6000 -144.9833 277° West 460 529 38,000  Level Anchorage Center
Sun 04:48:43 PM 60.6167 -145.2500 277° West 470 541 38,000  Level Anchorage Center
Sun 04:49:43 PM 60.6333 -145.5000 278° West 470 541 38,000  Level Anchorage Center
Sun 04:50:44 PM 60.6500 -145.7667 277° West 460 529 38,000  Level Anchorage Center
Sun 04:51:44 PM 60.6667 -146.0333 277° West 460 529 38,000  Level Anchorage Center
Sun 04:52:44 PM 60.7000 -146.3000 284° West 470 541 38,000 -950 Level Anchorage Center
Sun 04:53:44 PM 60.7333 -146.5833 284° West 470 541 36,100 -1,934 Descending Anchorage Center
Sun 04:54:45 PM 60.7500 -146.8667 277° West 460 529 34,100 -1,041 Descending Anchorage Center
Sun 04:55:45 PM 60.7833 -147.1167 285° West 470 541 34,000 -50 Descending Anchorage Center
Sun 04:56:46 PM 60.8167 -147.3833 284° West 470 541 34,000 -843 Level Anchorage Center
Sun 04:57:46 PM 60.8333 -147.6500 277° West 470 541 32,300 -2,050 Descending Anchorage Center
Sun 04:58:46 PM 60.8667 -147.9167 285° West 460 529 29,900 -2,700 Descending Anchorage Center
Sun 04:59:46 PM 60.8833 -148.1667 278° West 460 529 26,900 -2,926 Descending Anchorage Center
Sun 05:00:47 PM 60.9167 -148.4167 285° West 460 529 24,000 -2,975 Descending Anchorage Center
Sun 05:01:47 PM 60.9333 -148.7000 277° West 460 529 20,900 -2,750 Descending Anchorage Center
Sun 05:02:47 PM 60.9667 -148.9500 285° West 430 495 18,500 -2,400 Descending Anchorage Center
Sun 05:04:00 PM 60.9847 -149.2418 289° West  Level FlightAware Approximate
Sun 05:11:00 PM 61.1667 -149.9833 297° West  Level FlightAware Approximate
Sun 05:12:00 PM 61.1741 -149.9982 297° West  Level Estimated
Sun 05:13:00 PM 61.1741 -149.9982 297° West  Level Estimated
Sun 05:14:00 PM 61.1741 -149.9982 297° West  Level Estimated
Sun 05:15:00 PM 61.1741 -149.9982 297° West  Level Estimated
Sun 05:16:00 PM 61.1741 -149.9982 297° West  Level Estimated
Sun 05:17:00 PM 61.1741 -149.9982 297° West  Level Estimated
Sun 05:18:00 PM 61.1741 -149.9982 297° West  Level Estimated
Sun 05:19:00 PM 61.1741 -149.9982 297° West  Level Estimated
Sun 05:20:00 PM 61.1741 -149.9982 297° West  Level Estimated
Sun 05:21:00 PM 61.1741 -149.9982 297° West  Level Estimated
Sun 05:22:00 PM 61.1741 -149.9982 297° West  Level Estimated
Sun 05:23:00 PM 61.1741 -149.9982 297° West  Level Estimated
Sun 05:24:00 PM 61.1741 -149.9982 297° West  Level Estimated

Login

Don't have an account? Register now (free) for customized features, flight alerts, and more!